Time;durP1;ratioP1;P1;durP2;ratioP2;P2;SDS_P1;SDS_P2;PMS_P1;PMS_P2;Temp;Humidity;BMP_temperature;BMP_pressure;BME280_temperature;BME280_humidity;BME280_pressure;Samples;Min_cycle;Max_cycle;Signal;HPM_P1;HPM_P2
2023/01/18 00:01:38;;;;;;;24.50;14.37;;;;;;;-2.94;100.00;98956.41;5247825;28;20036;-79
2023/01/18 00:04:09;;;;;;;28.05;15.15;;;;;;;-2.85;100.00;98950.72;5249457;28;20546;-79
2023/01/18 00:06:40;;;;;;;24.15;14.43;;;;;;;-2.92;100.00;98955.38;5245539;28;20025;-79
2023/01/18 00:09:11;;;;;;;22.92;13.82;;;;;;;-2.97;100.00;98957.41;5247080;28;20029;-78
2023/01/18 00:11:43;;;;;;;24.60;15.50;;;;;;;-2.96;100.00;98952.09;5247697;28;20373;-78
2023/01/18 00:14:14;;;;;;;25.10;14.27;;;;;;;-2.98;100.00;98942.66;5250962;28;20441;-78
2023/01/18 00:16:45;;;;;;;25.40;13.65;;;;;;;-2.90;100.00;98944.88;5247024;28;20032;-79
2023/01/18 00:19:16;;;;;;;24.67;14.88;;;;;;;-2.94;100.00;98948.56;5247760;28;20120;-78
2023/01/18 00:21:53;;;;;;;22.23;13.75;;;;;;;-2.93;100.00;98958.94;5246384;28;20298;-79
2023/01/18 00:24:26;;;;;;;22.83;13.02;;;;;;;-2.97;100.00;98960.84;5248502;28;20615;-78
2023/01/18 00:26:57;;;;;;;24.45;13.38;;;;;;;-2.95;100.00;98952.97;5246105;28;20059;-78
2023/01/18 00:29:30;;;;;;;21.13;12.98;;;;;;;-2.96;100.00;98965.13;5250192;28;20028;-78
2023/01/18 00:32:02;;;;;;;24.65;13.02;;;;;;;-2.98;100.00;98951.34;5246058;28;20033;-78
2023/01/18 00:34:33;;;;;;;25.30;13.25;;;;;;;-3.03;100.00;98965.53;5246031;28;20471;-78
2023/01/18 00:37:04;;;;;;;23.13;13.50;;;;;;;-3.06;100.00;98963.09;5245686;28;20423;-78
2023/01/18 00:39:35;;;;;;;22.33;12.98;;;;;;;-3.06;100.00;98969.16;5247851;28;20041;-79
2023/01/18 00:44:57;;;;;;;21.93;12.13;;;;;;;-3.08;100.00;98970.16;5246579;28;20040;-78
2023/01/18 00:47:28;;;;;;;22.10;12.50;;;;;;;-3.05;100.00;98969.97;5245477;28;20547;-78
2023/01/18 00:50:00;;;;;;;20.73;12.20;;;;;;;-3.09;100.00;98971.06;5246829;28;20056;-78
2023/01/18 00:52:33;;;;;;;23.60;12.30;;;;;;;-3.00;100.00;98973.22;5250599;28;20443;-78
2023/01/18 00:55:05;;;;;;;21.53;12.43;;;;;;;-3.06;100.00;98968.31;5248731;28;20032;-78
2023/01/18 00:57:37;;;;;;;18.00;12.17;;;;;;;-2.97;100.00;98971.28;5247379;28;20343;-78
2023/01/18 01:00:11;;;;;;;22.08;12.65;;;;;;;-3.08;100.00;98975.38;5246367;28;20058;-78
2023/01/18 01:02:42;;;;;;;18.33;12.05;;;;;;;-3.08;100.00;98970.16;5245353;28;20037;-78
2023/01/18 01:08:15;;;;;;;19.57;11.43;;;;;;;-3.15;100.00;98969.59;5244207;28;20037;-78
2023/01/18 01:10:48;;;;;;;24.40;12.50;;;;;;;-3.16;100.00;98968.78;5247044;28;20025;-78
2023/01/18 01:27:30;;;;;;;19.93;11.83;;;;;;;-3.15;100.00;98980.88;5252900;28;20041;-78
2023/01/18 01:30:03;;;;;;;18.48;11.88;;;;;;;-3.20;100.00;98977.69;5250907;28;20487;-78
2023/01/18 01:32:34;;;;;;;21.52;12.18;;;;;;;-3.22;100.00;98986.47;5252472;28;20079;-78
2023/01/18 01:35:05;;;;;;;22.40;12.30;;;;;;;-3.22;100.00;98987.34;5247796;28;20025;-78
2023/01/18 01:37:37;;;;;;;22.75;11.90;;;;;;;-3.27;100.00;98996.31;5251909;28;20020;-78
2023/01/18 01:40:09;;;;;;;19.73;12.23;;;;;;;-3.30;100.00;99001.69;5256004;28;20028;-78
2023/01/18 01:42:40;;;;;;;20.00;12.43;;;;;;;-3.24;100.00;98996.16;5252553;28;20025;-78
2023/01/18 01:45:11;;;;;;;23.30;12.10;;;;;;;-3.29;100.00;99005.97;5246516;28;20039;-78
2023/01/18 01:47:43;;;;;;;23.83;12.95;;;;;;;-3.29;100.00;99004.22;5248312;28;20060;-78
2023/01/18 01:50:26;;;;;;;20.05;11.48;;;;;;;-3.29;100.00;99013.81;5249595;28;21134;-78
2023/01/18 01:52:58;;;;;;;20.63;11.65;;;;;;;-3.22;100.00;99017.78;5250178;28;20037;-78
2023/01/18 01:55:36;;;;;;;20.77;12.32;;;;;;;-3.28;100.00;99012.88;5248527;28;20443;-78
2023/01/18 01:58:18;;;;;;;22.10;12.00;;;;;;;-3.33;100.00;99020.09;5250064;28;20029;-78
2023/01/18 02:00:49;;;;;;;20.03;11.17;;;;;;;-3.35;100.00;99015.78;5249014;28;20024;-78
2023/01/18 02:03:23;;;;;;;21.47;11.87;;;;;;;-3.26;100.00;99014.50;5252693;28;20028;-78
2023/01/18 02:06:01;;;;;;;17.90;11.45;;;;;;;-3.29;100.00;99022.47;5247620;28;20087;-78
2023/01/18 02:08:33;;;;;;;18.97;11.37;;;;;;;-3.29;100.00;99013.81;5251580;28;20036;-77
2023/01/18 02:11:04;;;;;;;19.43;12.53;;;;;;;-3.28;100.00;99016.34;5249121;28;20512;-77
2023/01/18 02:13:36;;;;;;;23.90;12.10;;;;;;;-3.25;100.00;99012.72;5250231;28;20078;-77
2023/01/18 02:16:35;;;;;;;18.65;11.80;;;;;;;-3.22;100.00;99018.66;5250048;28;20067;-77
2023/01/18 02:19:18;;;;;;;17.93;11.27;;;;;;;-3.20;100.00;99018.56;5249816;28;20044;-77
2023/01/18 02:21:56;;;;;;;20.52;11.57;;;;;;;-3.14;100.00;99010.44;5250595;28;20049;-77
2023/01/18 02:24:41;;;;;;;21.05;11.07;;;;;;;-3.18;100.00;99014.13;5249634;28;20459;-77
2023/01/18 02:27:25;;;;;;;19.00;11.87;;;;;;;-3.15;100.00;99006.13;5247034;28;20622;-77
2023/01/18 02:30:10;;;;;;;20.07;11.20;;;;;;;-3.12;100.00;99011.19;5246091;28;20663;-77
2023/01/18 02:32:53;;;;;;;20.17;11.52;;;;;;;-3.23;100.00;99014.34;5250250;28;20036;-77
2023/01/18 02:35:36;;;;;;;19.33;11.90;;;;;;;-3.18;100.00;99017.56;5245785;28;20029;-77
2023/01/18 02:38:27;;;;;;;19.98;11.88;;;;;;;-3.21;100.00;99014.25;5255357;28;20537;-77
2023/01/18 02:41:05;;;;;;;21.02;11.18;;;;;;;-3.31;100.00;99023.47;5248601;28;20033;-77
2023/01/18 02:46:32;;;;;;;18.92;11.60;;;;;;;-3.32;100.00;99024.38;5243897;28;20036;-77
2023/01/18 02:49:07;;;;;;;20.02;11.93;;;;;;;-3.38;100.00;99034.16;5248502;28;20060;-77
2023/01/18 02:51:38;;;;;;;22.40;11.23;;;;;;;-3.39;100.00;99036.88;5247414;28;20025;-77
2023/01/18 02:54:12;;;;;;;20.83;11.27;;;;;;;-3.43;100.00;99044.00;5247630;28;20418;-77
2023/01/18 02:56:51;;;;;;;23.38;11.73;;;;;;;-3.44;100.00;99041.47;5246799;28;20017;-77
2023/01/18 02:59:28;;;;;;;19.87;11.23;;;;;;;-3.42;100.00;99042.22;5249624;28;20025;-77
2023/01/18 03:02:10;;;;;;;18.90;11.30;;;;;;;-3.46;100.00;99043.31;5247252;28;20044;-77
2023/01/18 03:04:57;;;;;;;21.50;12.18;;;;;;;-3.44;100.00;99038.84;5246207;28;20017;-77
2023/01/18 03:07:34;;;;;;;20.40;11.63;;;;;;;-3.53;100.00;99045.34;5244999;28;20033;-77
2023/01/18 03:10:09;;;;;;;22.43;11.60;;;;;;;-3.46;100.00;99040.69;5246962;28;20021;-77
2023/01/18 03:12:59;;;;;;;20.50;12.27;;;;;;;-3.52;100.00;99039.22;5248559;28;20116;-77
2023/01/18 03:15:44;;;;;;;23.10;12.50;;;;;;;-3.56;100.00;99038.53;5247071;28;20390;-77
2023/01/18 03:19:00;;;;;;;21.43;11.83;;;;;;;-3.52;100.00;99036.63;5246723;28;21058;-77
2023/01/18 03:21:41;;;;;;;21.93;13.07;;;;;;;-3.56;100.00;99035.91;5245382;28;20383;-77
2023/01/18 03:24:15;;;;;;;18.80;11.87;;;;;;;-3.51;100.00;99042.66;5247562;28;20028;-77
2023/01/18 03:26:52;;;;;;;21.63;12.63;;;;;;;-3.59;100.00;99037.81;5245255;28;20025;-77
2023/01/18 03:35:13;;;;;;;20.10;12.07;;;;;;;-3.63;100.00;99044.09;5246028;28;20032;-77
2023/01/18 03:37:47;;;;;;;21.50;12.50;;;;;;;-3.69;100.00;99039.19;5243241;28;20452;-77
2023/01/18 03:40:23;;;;;;;20.25;12.30;;;;;;;-3.71;100.00;99035.81;5246563;28;20027;-77
2023/01/18 03:43:13;;;;;;;19.50;12.25;;;;;;;-3.71;100.00;99043.63;5246445;28;20457;-77
2023/01/18 03:45:48;;;;;;;22.70;12.60;;;;;;;-3.76;100.00;99047.31;5242797;28;20029;-77
2023/01/18 03:48:19;;;;;;;;;;;;;;;-3.67;100.00;99058.19;5245600;28;20052;-77
2023/01/18 03:51:01;;;;;;;20.10;11.82;;;;;;;-3.65;100.00;99053.75;5247214;28;20489;-77
2023/01/18 03:53:39;;;;;;;22.73;12.60;;;;;;;-3.78;100.00;99062.16;5248547;28;20037;-77
2023/01/18 03:56:21;;;;;;;19.93;12.67;;;;;;;-3.74;100.00;99068.03;5246016;28;20187;-77
2023/01/18 03:58:57;;;;;;;21.07;12.77;;;;;;;-3.77;100.00;99082.06;5243611;28;20534;-77
2023/01/18 04:01:28;;;;;;;23.83;13.23;;;;;;;-3.73;100.00;99087.16;5246136;28;20043;-77
2023/01/18 04:03:59;;;;;;;23.90;13.23;;;;;;;-3.75;100.00;99082.00;5248112;28;20032;-77
2023/01/18 04:06:32;;;;;;;22.52;13.43;;;;;;;-3.78;100.00;99085.63;5246312;28;20154;-77
2023/01/18 04:09:03;;;;;;;19.20;12.50;;;;;;;-3.75;100.00;99089.81;5247997;28;20067;-77
2023/01/18 04:11:35;;;;;;;21.20;13.13;;;;;;;-3.74;100.00;99091.50;5250000;28;20151;-77
2023/01/18 04:14:06;;;;;;;21.10;12.47;;;;;;;-3.83;100.00;99094.56;5250744;28;20036;-77
2023/01/18 04:16:37;;;;;;;22.10;13.33;;;;;;;-3.85;100.00;99096.38;5248867;28;20154;-77
2023/01/18 04:19:09;;;;;;;21.70;13.13;;;;;;;-3.89;100.00;99095.69;5245785;28;21094;-77
2023/01/18 04:21:40;;;;;;;21.20;12.77;;;;;;;-3.88;100.00;99094.75;5245370;28;20052;-77
2023/01/18 04:24:12;;;;;;;19.83;12.57;;;;;;;-3.83;100.00;99092.78;5248473;28;20035;-77
2023/01/18 04:26:43;;;;;;;20.80;12.47;;;;;;;-3.88;100.00;99099.97;5247504;28;20090;-77
2023/01/18 04:29:14;;;;;;;22.00;12.17;;;;;;;-3.78;100.00;99101.25;5247753;28;21061;-77
2023/01/18 04:31:46;;;;;;;25.70;14.37;;;;;;;-3.89;100.00;99103.50;5248230;28;20060;-77
2023/01/18 04:34:17;;;;;;;24.92;14.65;;;;;;;-3.90;100.00;99100.94;5246406;28;20415;-77
2023/01/18 04:36:49;;;;;;;24.33;13.87;;;;;;;-3.85;100.00;99099.00;5246543;28;20035;-77
2023/01/18 04:39:20;;;;;;;24.60;14.40;;;;;;;-3.89;100.00;99108.69;5244817;28;20447;-76
2023/01/18 04:41:52;;;;;;;22.60;14.13;;;;;;;-3.88;100.00;99104.34;5243882;28;20078;-76
2023/01/18 04:44:23;;;;;;;23.83;14.63;;;;;;;-3.83;100.00;99108.41;5248952;28;20043;-77
2023/01/18 04:46:54;;;;;;;23.90;13.77;;;;;;;-3.91;100.00;99107.06;5256471;28;20093;-76
2023/01/18 04:49:26;;;;;;;24.23;14.70;;;;;;;-3.87;100.00;99111.22;5247906;28;20494;-77
2023/01/18 04:51:57;;;;;;;27.47;15.43;;;;;;;-3.86;100.00;99118.13;5254522;28;20538;-76
2023/01/18 04:54:29;;;;;;;22.03;13.83;;;;;;;-3.82;100.00;99109.25;5253005;28;20080;-77
2023/01/18 04:57:00;;;;;;;22.10;14.30;;;;;;;-3.87;100.00;99111.22;5253446;28;20021;-77
2023/01/18 04:59:31;;;;;;;25.57;14.67;;;;;;;-3.83;100.00;99116.22;5252068;28;20033;-76
2023/01/18 05:02:03;;;;;;;21.80;13.37;;;;;;;-3.82;100.00;99112.69;5251014;28;20039;-76
2023/01/18 05:04:35;;;;;;;28.00;15.10;;;;;;;-3.73;100.00;99118.44;5255102;28;20025;-76
2023/01/18 05:07:06;;;;;;;26.10;14.93;;;;;;;-3.83;100.00;99118.84;5256401;28;20079;-76
2023/01/18 05:09:38;;;;;;;25.13;15.30;;;;;;;-3.78;100.00;99129.91;5254728;28;20040;-77
2023/01/18 05:12:09;;;;;;;28.47;15.10;;;;;;;-3.82;100.00;99135.31;5254889;28;20033;-76
2023/01/18 05:14:40;;;;;;;23.37;14.57;;;;;;;-3.79;100.00;99141.22;5249404;28;20046;-76
2023/01/18 05:17:11;;;;;;;25.33;15.10;;;;;;;-3.79;100.00;99136.03;5248684;28;20060;-77
2023/01/18 05:19:43;;;;;;;28.77;16.00;;;;;;;-3.77;100.00;99136.78;5254897;28;20034;-77
2023/01/18 05:22:14;;;;;;;26.23;15.70;;;;;;;-3.72;100.00;99135.75;5265701;28;20056;-76
2023/01/18 05:24:45;;;;;;;25.07;15.83;;;;;;;-3.71;100.00;99147.88;5259587;28;20036;-77
2023/01/18 05:27:16;;;;;;;29.03;14.97;;;;;;;-3.78;100.00;99142.94;5257300;28;20033;-77
2023/01/18 05:29:48;;;;;;;24.17;16.13;;;;;;;-3.77;100.00;99144.63;5251814;28;20107;-77
2023/01/18 05:32:19;;;;;;;30.03;17.40;;;;;;;-3.75;100.00;99148.00;5259599;28;20118;-76
2023/01/18 05:34:50;;;;;;;26.80;16.57;;;;;;;-3.76;100.00;99156.75;5246720;28;20032;-77
2023/01/18 05:37:22;;;;;;;25.40;16.43;;;;;;;-3.79;100.00;99149.03;5250491;28;20036;-77
2023/01/18 05:39:53;;;;;;;25.90;15.40;;;;;;;-3.71;100.00;99158.28;5253220;28;20020;-77
2023/01/18 05:42:24;;;;;;;25.73;15.70;;;;;;;-3.75;100.00;99158.41;5257793;28;20470;-77
2023/01/18 05:44:55;;;;;;;27.17;16.83;;;;;;;-3.71;100.00;99159.13;5257729;28;20041;-77
2023/01/18 05:47:27;;;;;;;28.17;17.30;;;;;;;-3.76;100.00;99174.13;5253031;28;20033;-77
2023/01/18 05:49:59;;;;;;;24.13;15.83;;;;;;;-3.73;100.00;99160.13;5257362;28;20036;-77
2023/01/18 05:52:30;;;;;;;28.87;17.13;;;;;;;-3.75;100.00;99176.66;5262614;28;20035;-77
2023/01/18 05:55:02;;;;;;;25.63;16.37;;;;;;;-3.74;100.00;99169.69;5258090;28;20044;-77
2023/01/18 05:57:33;;;;;;;25.27;17.00;;;;;;;-3.81;100.00;99179.53;5256363;28;20036;-77
2023/01/18 06:00:05;;;;;;;27.10;16.60;;;;;;;-3.80;100.00;99190.81;5263774;28;20079;-77
2023/01/18 06:02:37;;;;;;;32.20;17.57;;;;;;;-3.80;100.00;99176.00;5258032;28;20036;-78
2023/01/18 06:05:08;;;;;;;25.23;17.27;;;;;;;-3.74;100.00;99182.69;5255171;28;20275;-77
2023/01/18 06:07:41;;;;;;;29.90;16.93;;;;;;;-3.80;100.00;99180.38;5255776;28;20108;-77
2023/01/18 06:10:12;;;;;;;25.70;17.23;;;;;;;-3.84;100.00;99187.47;5249893;28;20120;-76
2023/01/18 06:12:44;;;;;;;25.83;16.93;;;;;;;-3.79;100.00;99192.50;5246326;28;20186;-77
2023/01/18 06:15:16;;;;;;;30.20;16.97;;;;;;;-3.76;100.00;99198.44;5252177;28;20175;-77
2023/01/18 06:17:47;;;;;;;28.77;17.63;;;;;;;-3.79;100.00;99195.94;5260360;28;20033;-77
2023/01/18 06:20:18;;;;;;;32.20;18.73;;;;;;;-3.80;100.00;99194.25;5251613;28;20056;-77
2023/01/18 06:22:49;;;;;;;24.03;16.73;;;;;;;-3.82;100.00;99203.06;5255285;28;20051;-76
2023/01/18 06:25:21;;;;;;;29.87;17.50;;;;;;;-3.80;100.00;99203.81;5248508;28;20059;-76
2023/01/18 06:27:52;;;;;;;30.07;17.97;;;;;;;-3.82;100.00;99208.25;5258425;28;20037;-77
2023/01/18 06:30:24;;;;;;;29.70;17.50;;;;;;;-3.86;100.00;99215.38;5255759;28;20543;-77
2023/01/18 06:32:55;;;;;;;30.97;17.00;;;;;;;-3.78;100.00;99223.72;5257965;28;20118;-77
2023/01/18 06:35:26;;;;;;;27.93;16.80;;;;;;;-3.84;100.00;99215.31;5256721;28;20047;-77
2023/01/18 06:37:58;;;;;;;24.73;16.58;;;;;;;-3.81;100.00;99229.06;5247792;28;20653;-76
2023/01/18 06:40:29;;;;;;;30.47;18.03;;;;;;;-3.79;100.00;99231.59;5257884;28;20025;-76
2023/01/18 06:43:00;;;;;;;27.13;16.80;;;;;;;-3.79;100.00;99229.81;5258041;28;20062;-76
2023/01/18 06:45:32;;;;;;;28.40;18.07;;;;;;;-3.80;100.00;99230.72;5257321;28;20043;-76
2023/01/18 06:48:03;;;;;;;25.77;16.57;;;;;;;-3.81;100.00;99231.66;5253725;28;20026;-76
2023/01/18 06:50:35;;;;;;;29.93;17.60;;;;;;;-3.80;100.00;99235.09;5253282;28;20032;-76
2023/01/18 06:53:06;;;;;;;31.00;17.43;;;;;;;-3.81;100.00;99242.06;5257749;28;20067;-77
2023/01/18 06:55:37;;;;;;;27.03;17.67;;;;;;;-3.83;100.00;99248.28;5252084;28;20079;-76
2023/01/18 06:58:08;;;;;;;31.13;18.60;;;;;;;-3.78;100.00;99255.00;5257255;28;20036;-76
2023/01/18 07:00:40;;;;;;;30.83;17.43;;;;;;;-3.83;100.00;99254.31;5249959;28;21212;-76
2023/01/18 07:03:11;;;;;;;29.40;17.57;;;;;;;-3.78;100.00;99260.19;5253956;28;20040;-76
2023/01/18 07:05:45;;;;;;;27.87;17.90;;;;;;;-3.77;100.00;99267.09;5255012;28;20020;-76
2023/01/18 07:08:19;;;;;;;29.90;17.60;;;;;;;-3.76;100.00;99270.53;5264338;28;20037;-77
2023/01/18 07:10:51;;;;;;;32.00;17.73;;;;;;;-3.75;100.00;99272.25;5253711;28;20051;-76
2023/01/18 07:13:23;;;;;;;29.07;18.17;;;;;;;-3.75;100.00;99278.28;5247445;28;20112;-76
2023/01/18 07:15:57;;;;;;;28.77;18.47;;;;;;;-3.76;100.00;99265.31;5251426;28;20525;-76
2023/01/18 07:18:29;;;;;;;29.75;17.65;;;;;;;-3.79;100.00;99270.69;5246408;28;20033;-77
2023/01/18 07:21:08;;;;;;;26.03;17.23;;;;;;;-3.81;100.00;99275.13;5249002;28;20126;-76
2023/01/18 07:23:41;;;;;;;25.43;17.53;;;;;;;-3.73;100.00;99280.84;5251152;28;20036;-76
2023/01/18 07:26:15;;;;;;;26.17;17.50;;;;;;;-3.80;100.00;99288.06;5255326;28;20060;-76
2023/01/18 07:28:47;;;;;;;28.07;17.73;;;;;;;-3.70;100.00;99290.25;5250897;28;20067;-76
2023/01/18 07:31:19;;;;;;;29.33;17.93;;;;;;;-3.76;100.00;99288.78;5248665;28;20029;-76
2023/01/18 07:33:50;;;;;;;27.53;17.67;;;;;;;-3.70;100.00;99283.31;5252734;28;20107;-76
2023/01/18 07:36:21;;;;;;;28.43;17.47;;;;;;;-3.70;100.00;99283.31;5252337;28;20044;-76
2023/01/18 07:38:53;;;;;;;30.10;18.47;;;;;;;-3.72;100.00;99295.56;5252286;28;20028;-76
2023/01/18 07:41:25;;;;;;;28.23;17.63;;;;;;;-3.73;100.00;99293.03;5246770;28;20025;-76
2023/01/18 07:43:56;;;;;;;30.63;18.33;;;;;;;-3.71;100.00;99299.00;5248322;28;20059;-76
2023/01/18 07:46:27;;;;;;;33.15;18.50;;;;;;;-3.69;100.00;99298.03;5249468;28;20037;-75
2023/01/18 07:49:01;;;;;;;29.53;17.97;;;;;;;-3.68;100.00;99297.13;5245244;28;20452;-76
2023/01/18 07:51:32;;;;;;;28.77;18.20;;;;;;;-3.66;100.00;99310.94;5246200;28;20025;-75
2023/01/18 07:54:04;;;;;;;32.57;18.63;;;;;;;-3.65;100.00;99298.75;5253637;28;20359;-75
2023/01/18 07:56:35;;;;;;;27.57;17.30;;;;;;;-3.67;100.00;99305.78;5251382;28;20036;-77
2023/01/18 07:59:07;;;;;;;27.83;17.37;;;;;;;-3.66;100.00;99305.72;5244440;28;20056;-76
2023/01/18 08:01:38;;;;;;;27.60;17.50;;;;;;;-3.62;100.00;99307.28;5249316;28;20067;-76
2023/01/18 08:04:09;;;;;;;29.48;18.73;;;;;;;-3.59;100.00;99309.75;5253175;28;20037;-77
2023/01/18 08:06:41;;;;;;;29.33;17.37;;;;;;;-3.56;100.00;99307.00;5250625;28;20035;-76
2023/01/18 08:09:12;;;;;;;30.67;17.57;;;;;;;-3.54;100.00;99322.59;5253123;28;20029;-75
2023/01/18 08:11:43;;;;;;;31.87;18.27;;;;;;;-3.50;100.00;99324.16;5253911;28;20017;-76
2023/01/18 08:14:15;;;;;;;28.77;17.57;;;;;;;-3.53;100.00;99319.06;5261391;28;20025;-75
2023/01/18 08:16:46;;;;;;;29.40;17.60;;;;;;;-3.48;100.00;99334.50;5250522;28;20029;-76
2023/01/18 08:19:17;;;;;;;27.63;17.35;;;;;;;-3.52;100.00;99335.56;5253656;28;20037;-76
2023/01/18 08:21:48;;;;;;;27.83;17.37;;;;;;;-3.48;100.00;99337.13;5254443;28;20072;-76
2023/01/18 08:24:20;;;;;;;27.43;18.33;;;;;;;-3.43;100.00;99333.41;5252833;28;20474;-76
2023/01/18 08:26:51;;;;;;;28.83;17.33;;;;;;;-3.47;100.00;99339.66;5248674;28;20025;-76
2023/01/18 08:29:22;;;;;;;28.80;17.90;;;;;;;-3.45;100.00;99331.75;5255604;28;20075;-76
2023/01/18 08:31:54;;;;;;;29.20;18.30;;;;;;;-3.36;100.00;99337.44;5250220;28;20040;-76
2023/01/18 08:34:25;;;;;;;26.13;17.10;;;;;;;-3.26;100.00;99340.50;5252762;28;20033;-76
2023/01/18 08:36:56;;;;;;;28.35;17.63;;;;;;;-3.21;100.00;99350.72;5251741;28;20031;-76
2023/01/18 08:39:27;;;;;;;27.07;17.33;;;;;;;-3.06;100.00;99350.03;5250896;28;20036;-76
2023/01/18 08:41:59;;;;;;;28.07;17.37;;;;;;;-3.08;100.00;99353.63;5252144;28;20036;-77
2023/01/18 08:44:30;;;;;;;28.07;17.17;;;;;;;-3.11;100.00;99352.00;5249307;28;20383;-76
2023/01/18 08:47:02;;;;;;;29.13;16.85;;;;;;;-3.07;100.00;99363.97;5248741;28;20402;-76
2023/01/18 08:49:34;;;;;;;26.07;17.10;;;;;;;-2.99;100.00;99372.34;5246060;28;20040;-76
2023/01/18 08:52:05;;;;;;;24.58;17.15;;;;;;;-3.02;100.00;99369.00;5249671;28;20544;-76
2023/01/18 08:54:37;;;;;;;23.13;16.33;;;;;;;-2.92;100.00;99377.28;5249807;28;20037;-76
2023/01/18 08:57:09;;;;;;;22.80;16.10;;;;;;;-2.97;100.00;99380.09;5250899;28;20025;-76
2023/01/18 08:59:41;;;;;;;26.80;16.25;;;;;;;-2.95;100.00;99378.28;5250514;28;20505;-76
2023/01/18 09:02:12;;;;;;;25.70;16.17;;;;;;;-2.95;100.00;99375.66;5251370;28;20036;-76
2023/01/18 09:04:47;;;;;;;25.35;16.65;;;;;;;-2.87;100.00;99383.97;5246058;28;20473;-76
2023/01/18 09:07:19;;;;;;;23.83;15.93;;;;;;;-2.87;100.00;99383.97;5248517;28;20033;-76
2023/01/18 09:09:50;;;;;;;23.07;15.50;;;;;;;-2.83;100.00;99388.13;5251883;28;20029;-76
2023/01/18 09:12:21;;;;;;;25.83;16.35;;;;;;;-2.81;100.00;99388.91;5253218;28;20029;-76
2023/01/18 09:14:53;;;;;;;24.75;16.10;;;;;;;-2.79;100.00;99391.47;5254220;28;20017;-76
2023/01/18 09:17:24;;;;;;;24.05;15.68;;;;;;;-2.70;100.00;99390.19;5249391;28;20017;-76
2023/01/18 09:19:55;;;;;;;25.38;16.20;;;;;;;-2.78;100.00;99395.75;5248925;28;20399;-76
2023/01/18 09:22:27;;;;;;;22.63;15.73;;;;;;;-2.69;100.00;99397.94;5248124;28;20064;-76
2023/01/18 09:24:58;;;;;;;24.10;16.35;;;;;;;-2.67;100.00;99401.34;5253834;28;20036;-76
2023/01/18 09:27:29;;;;;;;28.17;15.45;;;;;;;-2.70;100.00;99413.69;5251708;28;20032;-76
2023/01/18 09:30:00;;;;;;;26.25;15.98;;;;;;;-2.65;100.00;99416.94;5251465;28;20068;-76
2023/01/18 09:32:32;;;;;;;24.65;16.10;;;;;;;-2.63;100.00;99417.72;5251652;28;20344;-76
2023/01/18 09:35:04;;;;;;;23.73;16.15;;;;;;;-2.62;100.00;99422.88;5252589;28;20037;-76
2023/01/18 09:37:36;;;;;;;27.40;17.02;;;;;;;-2.57;100.00;99418.31;5250975;28;20025;-76
2023/01/18 09:40:17;;;;;;;25.70;16.00;;;;;;;-2.56;100.00;99419.13;5251364;28;20044;-76
2023/01/18 09:42:50;;;;;;;22.38;15.20;;;;;;;-2.49;100.00;99436.22;5254409;28;20047;-76
2023/01/18 09:45:31;;;;;;;21.83;15.02;;;;;;;-2.43;100.00;99440.31;5251628;28;20043;-76
2023/01/18 09:48:05;;;;;;;23.60;15.30;;;;;;;-2.38;100.00;99435.72;5256525;28;20029;-76
2023/01/18 09:50:43;;;;;;;26.95;16.92;;;;;;;-2.33;100.00;99443.38;5252905;28;20067;-76
2023/01/18 09:53:45;;;;;;;22.92;16.42;;;;;;;-2.27;100.00;99454.34;5251531;28;20087;-76
2023/01/18 09:56:26;;;;;;;24.70;16.25;;;;;;;-2.27;100.00;99449.13;5254649;28;20399;-76
2023/01/18 09:59:14;;;;;;;27.02;17.35;;;;;;;-2.19;100.00;99449.66;5249603;28;20508;-76
2023/01/18 10:01:47;;;;;;;24.48;16.42;;;;;;;-2.13;100.00;99447.66;5248108;28;20494;-76
2023/01/18 10:04:42;;;;;;;24.25;16.23;;;;;;;-2.06;100.00;99446.44;5247493;28;20381;-76
2023/01/18 10:07:16;;;;;;;22.35;16.75;;;;;;;-2.10;100.00;99444.91;5253056;28;20032;-76
2023/01/18 10:09:51;;;;;;;;;;;;;;;-2.03;100.00;99449.78;5257962;28;20119;-76
2023/01/18 10:12:43;;;;;;;26.10;16.70;;;;;;;-2.02;100.00;99448.00;5250393;28;20042;-76
2023/01/18 10:15:25;;;;;;;26.80;16.83;;;;;;;-1.99;100.00;99447.84;5251987;28;21087;-76
2023/01/18 10:17:59;;;;;;;25.15;16.25;;;;;;;-1.95;100.00;99459.84;5249426;28;20025;-76
2023/01/18 10:20:44;;;;;;;22.85;16.88;;;;;;;-1.92;100.00;99456.25;5250601;28;20064;-76
2023/01/18 10:23:38;;;;;;;24.48;17.50;;;;;;;-1.82;100.00;99462.75;5254186;28;20589;-76
2023/01/18 10:26:21;;;;;;;24.95;16.40;;;;;;;-1.80;100.00;99463.50;5255508;28;20094;-76
2023/01/18 10:29:05;;;;;;;26.05;17.40;;;;;;;-1.75;100.00;99458.06;5257049;28;20072;-76
2023/01/18 10:31:55;;;;;;;28.48;17.70;;;;;;;-1.69;100.00;99465.59;5253288;28;20111;-76
2023/01/18 10:34:34;;;;;;;24.42;17.08;;;;;;;-1.63;100.00;99465.28;5250779;28;20038;-76
2023/01/18 10:37:13;;;;;;;26.85;17.40;;;;;;;-1.55;100.00;99462.31;5244619;28;20411;-76
2023/01/18 10:39:49;;;;;;;24.40;17.05;;;;;;;-1.50;100.00;99449.84;5248439;28;20032;-75
2023/01/18 10:42:25;;;;;;;26.35;18.02;;;;;;;-1.48;100.00;99455.84;5256453;28;20494;-75
2023/01/18 10:44:56;;;;;;;24.35;17.70;;;;;;;-1.38;100.00;99457.13;5252660;28;20515;-75
2023/01/18 10:47:28;;;;;;;24.58;17.58;;;;;;;-1.29;100.00;99455.78;5246305;28;20120;-77
2023/01/18 10:49:59;;;;;;;28.25;17.38;;;;;;;-1.30;100.00;99461.97;5253222;28;20028;-76
2023/01/18 10:52:31;;;;;;;25.20;17.10;;;;;;;-1.20;100.00;99466.66;5253342;28;20056;-77
2023/01/18 10:55:08;;;;;;;25.17;17.40;;;;;;;-1.20;100.00;99457.94;5252279;28;20510;-77
2023/01/18 10:57:46;;;;;;;25.35;17.50;;;;;;;-1.15;100.00;99462.94;5253697;28;20482;-76
2023/01/18 11:00:25;;;;;;;26.00;15.90;;;;;;;-1.07;100.00;99463.41;5253820;28;20020;-76
2023/01/18 11:02:59;;;;;;;23.40;16.63;;;;;;;-0.95;100.00;99462.78;5252022;28;20033;-76
2023/01/18 11:05:32;;;;;;;26.73;17.10;;;;;;;-0.89;100.00;99469.47;5250150;28;20115;-76
2023/01/18 11:08:22;;;;;;;25.67;18.17;;;;;;;-0.94;100.00;99466.25;5256582;28;20037;-76
2023/01/18 11:11:03;;;;;;;24.67;16.27;;;;;;;-0.91;100.00;99466.09;5250291;28;20515;-76
2023/01/18 11:13:43;;;;;;;24.50;17.02;;;;;;;-0.88;100.00;99477.25;5255077;28;20059;-76
2023/01/18 11:16:20;;;;;;;22.58;16.10;;;;;;;-0.85;100.00;99476.25;5248067;28;20021;-76
2023/01/18 11:19:14;;;;;;;23.65;17.02;;;;;;;-0.82;100.00;99473.47;5256038;28;20371;-76
2023/01/18 11:21:49;;;;;;;24.75;16.33;;;;;;;-0.75;100.00;99480.06;5250471;28;20128;-76
2023/01/18 11:24:30;;;;;;;21.90;15.52;;;;;;;-0.72;100.00;99473.84;5251532;28;20029;-76
2023/01/18 11:27:06;;;;;;;22.98;15.68;;;;;;;-0.67;100.00;99472.69;5250183;28;20104;-75
2023/01/18 11:29:41;;;;;;;20.88;15.40;;;;;;;-0.61;100.00;99472.34;5254567;28;20072;-76
2023/01/18 11:32:28;;;;;;;20.98;15.35;;;;;;;-0.51;100.00;99475.34;5249665;28;20040;-76
2023/01/18 11:35:00;;;;;;;21.88;15.02;;;;;;;-0.54;100.00;99462.38;5253640;28;20140;-76
2023/01/18 11:37:42;;;;;;;21.77;15.35;;;;;;;-0.52;100.00;99465.75;5251947;28;20479;-76
2023/01/18 11:40:20;;;;;;;18.40;13.93;;;;;;;-0.51;100.00;99466.63;5248843;28;20067;-77
2023/01/18 11:42:58;;;;;;;21.42;14.82;;;;;;;-0.43;100.00;99467.06;5253738;28;20087;-76
2023/01/18 11:45:35;;;;;;;19.58;14.27;;;;;;;-0.45;100.00;99466.31;5250294;28;20394;-76
2023/01/18 11:48:21;;;;;;;20.75;14.82;;;;;;;-0.40;100.00;99464.28;5248913;28;20068;-76
2023/01/18 11:51:07;;;;;;;20.95;14.02;;;;;;;-0.36;100.00;99465.81;5253203;28;20025;-76
2023/01/18 11:53:44;;;;;;;20.95;14.00;;;;;;;-0.35;100.00;99467.50;5250490;28;20037;-76
2023/01/18 11:56:38;;;;;;;22.77;14.52;;;;;;;-0.33;100.00;99457.78;5248861;28;20110;-75
2023/01/18 11:59:34;;;;;;;19.75;13.88;;;;;;;-0.27;100.00;99467.94;5252821;28;20032;-76
2023/01/18 12:02:24;;;;;;;19.25;13.05;;;;;;;-0.24;100.00;99474.78;5238371;28;20501;-76
2023/01/18 12:05:32;;;;;;;19.00;12.27;;;;;;;-0.15;100.00;99469.06;5252333;28;20037;-76
2023/01/18 12:08:37;;;;;;;19.58;13.38;;;;;;;-0.13;100.00;99476.84;5245691;28;20041;-76
2023/01/18 12:11:18;;;;;;;16.67;11.88;;;;;;;-0.05;100.00;99488.59;5253110;28;20182;-76
2023/01/18 12:14:00;;;;;;;17.65;12.48;;;;;;;-0.05;100.00;99491.19;5254363;28;20031;-76